Alton, New York
Current Conditions -  °F | °C
As of 3:54 AM on Sunday 26 Oct 2014 (Local Time) from KFZY Reporting Station
Overcast Overcast  
Wind Chill: 52°   Ceiling: 4800
Heat Index: 52°   Visibility: 10mi
Dew Point: 38°   Wind: 13mph
Humidity: 59%   Direction: 280°W
Pressure: 29.56"   Gusts: 24mph
Location:  43.21°N, 76.98°W
Report Text: KFZY 260754Z AUTO 28011G21KT 10SM SCT040 BKN048 OVC060 11/03 A2956 RMK AO2 PK WND 29028/0736 RAB30E42 SLP008 P0000 T01110033
Loading
Personal Weather Stations






























Interactive Weather Map New forecast layout! Learn more

10-Day Weather Forecast

Advertisements
Track Severe Weather on mobile